Pima, Arizona
Current Conditions -  °F | °C
As of 5:51 PM on Tuesday 27 Jan 2015 (Local Time) from KSAD Reporting Station
Clear Clear  
Wind Chill: 65°   Ceiling: Unl
Heat Index: 65°   Visibility: 10mi
Dew Point: 35°   Wind: 7mph
Humidity: 33%   Direction: 280°W
Pressure: 30.16"   Gusts: NA
Location:  32.9°N, 109.83°W
Report Text: KSAD 280051Z AUTO 28006KT 10SM CLR 18/02 A3016 RMK AO2 SLP188 T01830017
Loading
Personal Weather Stations






























Interactive Weather Map New forecast layout! Learn more

10-Day Weather Forecast

Advertisements
Track Severe Weather on mobile